Time;durP1;ratioP1;P1;durP2;ratioP2;P2;SDS_P1;SDS_P2;PMS_P1;PMS_P2;Temp;Humidity;BMP_temperature;BMP_pressure;BME280_temperature;BME280_humidity;BME280_pressure;Samples;Min_cycle;Max_cycle;Signal;HPM_P1;HPM_P2
2021/12/31 00:02:05;;;;;;;10.63;4.97;;;;;;;11.41;97.16;101210.47;6299555;22;20186;-68
2021/12/31 00:05:09;;;;;;;11.25;4.03;;;;;;;11.35;97.28;101221.22;6298350;22;20093;-69
2021/12/31 00:08:12;;;;;;;8.43;2.85;;;;;;;11.49;96.94;101217.16;6299146;22;20022;-69
2021/12/31 00:11:16;;;;;;;17.73;5.60;;;;;;;11.56;96.31;101226.44;6298892;22;20061;-68
2021/12/31 00:14:20;;;;;;;12.50;7.40;;;;;;;11.41;96.84;101231.41;6299387;22;20026;-68
2021/12/31 00:17:24;;;;;;;9.27;3.33;;;;;;;11.40;96.46;101228.88;6299603;22;20124;-68
2021/12/31 00:20:28;;;;;;;11.18;3.80;;;;;;;11.42;96.71;101229.66;6298569;22;20080;-69
2021/12/31 00:23:31;;;;;;;9.55;4.68;;;;;;;11.41;96.78;101220.94;6297679;22;20022;-69
2021/12/31 00:26:34;;;;;;;14.20;4.30;;;;;;;11.24;97.37;101223.47;6298415;22;20076;-69
2021/12/31 00:29:39;;;;;;;6.78;2.58;;;;;;;11.21;97.72;101218.38;6299017;22;20026;-69
2021/12/31 00:32:42;;;;;;;11.68;3.00;;;;;;;11.31;97.76;101219.66;6298391;22;20026;-72
2021/12/31 00:35:46;;;;;;;5.65;2.30;;;;;;;11.22;96.99;101219.22;6299879;22;20025;-69
2021/12/31 00:38:49;;;;;;;9.57;2.90;;;;;;;11.17;97.40;101215.03;6299860;22;20076;-69
2021/12/31 00:41:52;;;;;;;11.00;2.83;;;;;;;11.25;97.27;101219.94;6298726;22;20034;-69
2021/12/31 00:44:56;;;;;;;10.07;2.65;;;;;;;11.33;96.76;101217.84;6298446;22;20072;-69
2021/12/31 00:47:59;;;;;;;7.70;2.10;;;;;;;11.36;96.46;101212.47;6300111;22;20500;-71
2021/12/31 00:51:03;;;;;;;6.82;2.20;;;;;;;11.29;96.73;101204.94;6301089;22;20057;-68
2021/12/31 00:54:08;;;;;;;4.40;1.90;;;;;;;11.20;96.52;101210.56;6301446;22;20029;-68
2021/12/31 00:57:11;;;;;;;11.15;2.50;;;;;;;11.08;97.40;101201.50;6301936;22;20089;-69
2021/12/31 01:00:16;;;;;;;12.63;2.17;;;;;;;11.13;98.02;101204.75;6300226;22;20258;-69
2021/12/31 01:03:19;;;;;;;9.48;2.70;;;;;;;11.06;97.61;101204.19;6301420;22;20085;-69
2021/12/31 01:06:23;;;;;;;8.88;3.10;;;;;;;11.00;97.98;101193.13;6300742;22;20108;-69
2021/12/31 01:09:25;;;;;;;;;;;;;;;11.01;98.25;101200.94;6300922;22;20077;-69
2021/12/31 01:12:29;;;;;;;11.57;2.38;;;;;;;11.10;99.07;101200.53;6295480;22;19952;-68
2021/12/31 01:15:38;;;;;;;9.93;2.03;;;;;;;11.12;97.91;101197.84;6301475;22;20385;-68
2021/12/31 01:21:56;;;;;;;8.38;2.63;;;;;;;11.14;97.35;101190.78;6291804;22;20080;-68
2021/12/31 01:25:02;;;;;;;8.45;2.13;;;;;;;11.03;98.78;101209.53;6301349;22;20022;-69
2021/12/31 01:28:06;;;;;;;8.55;2.85;;;;;;;10.92;99.93;101193.47;6301674;22;20342;-69
2021/12/31 01:31:10;;;;;;;6.55;2.25;;;;;;;11.02;99.31;101201.78;6300398;22;20083;-68
2021/12/31 01:34:12;;;;;;;;;;;;;;;11.02;98.31;101209.63;6300329;22;20066;-68
2021/12/31 01:37:16;;;;;;;8.20;1.80;;;;;;;10.99;97.94;101215.84;6300450;22;19913;-68
2021/12/31 01:40:20;;;;;;;9.90;2.35;;;;;;;11.04;98.12;101220.84;6301286;22;20028;-68
2021/12/31 01:43:23;;;;;;;6.78;1.60;;;;;;;10.98;96.91;101214.16;6300881;22;20353;-68
2021/12/31 01:46:27;;;;;;;3.25;1.70;;;;;;;11.00;96.93;101208.81;6301270;22;20022;-68
2021/12/31 01:49:36;;;;;;;6.05;2.10;;;;;;;10.99;96.43;101217.59;6300827;22;20399;-68
2021/12/31 01:52:40;;;;;;;4.18;1.33;;;;;;;11.01;96.47;101215.75;6301066;22;20026;-68
2021/12/31 01:55:43;;;;;;;;;;;;;;;11.03;96.29;101213.94;6300984;22;20022;-68
2021/12/31 01:58:48;;;;;;;;;;;;;;;11.00;96.92;101221.91;6300640;22;20002;-69
2021/12/31 02:01:51;;;;;;;7.32;2.65;;;;;;;11.00;96.61;101224.53;6300389;22;19956;-68
2021/12/31 02:04:55;;;;;;;7.20;1.33;;;;;;;11.02;96.58;101227.94;6300999;22;20365;-68
2021/12/31 02:07:59;;;;;;;7.18;2.20;;;;;;;10.86;97.58;101228.59;6301224;22;20030;-68
2021/12/31 02:11:02;;;;;;;5.10;1.52;;;;;;;10.89;96.86;101223.22;6300601;22;20523;-69
2021/12/31 02:14:06;;;;;;;7.47;2.28;;;;;;;10.91;96.77;101225.75;6299926;22;20038;-69
2021/12/31 02:17:10;;;;;;;10.02;1.80;;;;;;;10.94;96.79;101231.75;6299835;22;20076;-69
2021/12/31 02:20:15;;;;;;;6.75;1.70;;;;;;;10.94;96.72;101223.91;6299842;22;20026;-68
2021/12/31 02:23:23;;;;;;;4.93;1.33;;;;;;;10.94;96.16;101230.88;6300804;22;20022;-68
2021/12/31 02:26:27;;;;;;;4.57;1.15;;;;;;;10.93;96.38;101235.25;6300607;22;20038;-68
2021/12/31 02:29:31;;;;;;;6.78;1.50;;;;;;;10.91;96.42;101233.63;6301830;22;20073;-68
2021/12/31 02:32:35;;;;;;;10.15;1.92;;;;;;;10.96;96.17;101243.91;6301151;22;20022;-68
2021/12/31 02:35:39;;;;;;;7.72;1.65;;;;;;;10.92;96.27;101238.78;6299403;22;20265;-68
2021/12/31 02:38:43;;;;;;;4.40;1.08;;;;;;;10.83;95.91;101235.72;6299959;22;20030;-69
2021/12/31 02:41:46;;;;;;;6.00;1.55;;;;;;;10.80;96.32;101234.06;6299004;22;20026;-68
2021/12/31 02:44:51;;;;;;;4.53;1.13;;;;;;;10.77;96.47;101226.34;6299867;22;20022;-68
2021/12/31 02:47:55;;;;;;;10.02;1.63;;;;;;;10.77;96.31;101222.91;6300958;22;20022;-68
2021/12/31 02:51:00;;;;;;;5.35;1.42;;;;;;;10.75;96.29;101233.41;6300531;22;20033;-69
2021/12/31 02:54:08;;;;;;;6.90;1.23;;;;;;;10.71;96.59;101231.84;6301184;22;20276;-69
2021/12/31 02:57:13;;;;;;;7.28;1.60;;;;;;;10.70;96.62;101222.31;6300512;22;20521;-68
2021/12/31 03:00:17;;;;;;;5.78;1.50;;;;;;;10.66;97.44;101212.88;6300167;22;20029;-69
2021/12/31 03:03:20;;;;;;;7.03;1.38;;;;;;;10.72;97.23;101204.78;6299526;22;20027;-69
2021/12/31 03:06:24;;;;;;;8.68;1.92;;;;;;;10.69;97.47;101210.16;6298254;22;20471;-70
2021/12/31 03:09:27;;;;;;;6.15;1.73;;;;;;;10.73;97.34;101203.88;6299987;22;20030;-69
2021/12/31 03:12:31;;;;;;;9.00;2.08;;;;;;;10.73;97.44;101203.03;6301375;22;20026;-67
2021/12/31 03:15:36;;;;;;;4.43;1.38;;;;;;;10.71;96.48;101193.44;6300499;22;20062;-67
2021/12/31 03:18:41;;;;;;;4.53;1.80;;;;;;;10.63;96.31;101184.25;6300002;22;20371;-67
2021/12/31 03:21:44;;;;;;;7.95;1.88;;;;;;;10.46;97.03;101188.41;6299820;22;20149;-68
2021/12/31 03:24:47;;;;;;;6.20;1.10;;;;;;;10.41;97.17;101181.66;6299319;22;20110;-68
2021/12/31 03:27:51;;;;;;;6.05;1.95;;;;;;;10.39;98.56;101184.34;6299620;22;20483;-68
2021/12/31 03:30:55;;;;;;;10.63;1.60;;;;;;;10.43;99.13;101172.84;6298617;22;20021;-68
2021/12/31 03:33:58;;;;;;;5.55;1.40;;;;;;;10.57;97.74;101174.88;6300302;22;20072;-68
2021/12/31 03:37:01;;;;;;;5.70;2.15;;;;;;;10.62;97.72;101178.13;6299949;22;20026;-68
2021/12/31 03:40:06;;;;;;;12.50;2.88;;;;;;;10.56;97.91;101183.66;6299210;22;20034;-68
2021/12/31 03:43:09;;;;;;;7.53;1.33;;;;;;;10.62;97.82;101177.28;6299070;22;20531;-68
2021/12/31 03:46:12;;;;;;;10.20;1.58;;;;;;;10.57;97.32;101174.88;6297562;22;20042;-68
2021/12/31 03:49:15;;;;;;;;;;;;;;;10.47;97.89;101173.56;6300586;22;20399;-69
2021/12/31 03:52:18;;;;;;;7.90;1.45;;;;;;;10.61;97.69;101171.22;6299726;22;19914;-68
2021/12/31 03:55:22;;;;;;;4.40;0.90;;;;;;;10.70;96.58;101164.75;6300280;22;20326;-68
2021/12/31 03:58:25;;;;;;;6.55;1.27;;;;;;;10.65;95.93;101162.31;6299358;22;20546;-68
2021/12/31 04:01:29;;;;;;;4.97;1.50;;;;;;;10.63;96.18;101160.72;6298869;22;20029;-68
2021/12/31 04:04:32;;;;;;;7.53;2.13;;;;;;;10.41;96.72;101158.97;6298417;22;20022;-68
2021/12/31 04:07:35;;;;;;;9.80;1.63;;;;;;;10.51;96.88;101159.44;6299482;22;20415;-67
2021/12/31 04:10:38;;;;;;;;;;;;;;;10.47;97.13;101152.66;6299559;22;20026;-68
2021/12/31 04:13:42;;;;;;;6.85;1.65;;;;;;;10.50;96.73;101151.66;6299767;22;19953;-68
2021/12/31 04:16:45;;;;;;;8.15;1.73;;;;;;;10.45;96.70;101155.31;6298914;22;20026;-68
2021/12/31 04:19:52;;;;;;;;;;;;;;;10.47;96.45;101153.50;6299060;22;20102;-69
2021/12/31 04:22:57;;;;;;;8.50;1.70;;;;;;;10.58;96.34;101144.34;6298518;22;20004;-68
2021/12/31 04:26:01;;;;;;;9.43;1.90;;;;;;;10.43;96.11;101148.44;6298699;22;20037;-68
2021/12/31 04:29:04;;;;;;;;;;;;;;;10.21;97.25;101157.16;6300508;22;20050;-68
2021/12/31 04:32:07;;;;;;;17.58;2.20;;;;;;;10.17;99.41;101154.72;6300016;22;20004;-68
2021/12/31 04:35:11;;;;;;;6.55;1.25;;;;;;;10.27;98.27;101148.22;6296565;22;20022;-68
2021/12/31 04:38:15;;;;;;;5.63;1.38;;;;;;;10.22;97.26;101148.41;6299467;22;20077;-68
2021/12/31 04:41:19;;;;;;;3.88;1.05;;;;;;;10.27;96.67;101156.06;6298998;22;20488;-68
2021/12/31 04:44:22;;;;;;;5.30;1.10;;;;;;;10.25;96.70;101161.34;6298463;22;20077;-68
2021/12/31 04:47:25;;;;;;;7.88;1.20;;;;;;;10.29;95.65;101169.94;6300577;22;20109;-68
2021/12/31 04:50:29;;;;;;;3.30;0.80;;;;;;;10.10;95.99;101182.00;6299552;22;20050;-68
2021/12/31 04:53:33;;;;;;;3.63;0.82;;;;;;;10.12;95.88;101174.97;6299714;22;20022;-68
2021/12/31 04:56:37;;;;;;;5.53;0.82;;;;;;;10.18;95.26;101182.56;6298787;22;20025;-68
2021/12/31 04:59:40;;;;;;;;;;;;;;;10.23;95.66;101178.00;6298098;22;20022;-68
2021/12/31 05:02:43;;;;;;;5.97;3.47;;;;;;;10.22;95.13;101173.69;6299066;22;19979;-69
2021/12/31 05:05:46;;;;;;;4.18;2.42;;;;;;;10.14;95.21;101181.81;6298249;22;20095;-68
2021/12/31 05:08:50;;;;;;;8.00;1.67;;;;;;;10.18;95.05;101183.44;6300109;22;20062;-68
2021/12/31 05:11:53;;;;;;;8.95;0.90;;;;;;;10.18;94.89;101182.56;6299358;22;20084;-68
2021/12/31 05:14:56;;;;;;;;;;;;;;;10.10;94.29;101184.63;6298797;22;20529;-69
2021/12/31 05:18:00;;;;;;;7.47;2.10;;;;;;;10.05;94.58;101189.19;6298030;22;19913;-69
2021/12/31 05:21:03;;;;;;;4.88;3.22;;;;;;;10.04;95.17;101184.88;6299230;22;20407;-67
2021/12/31 05:24:07;;;;;;;9.43;2.90;;;;;;;10.00;94.95;101187.59;6299866;22;20018;-67
2021/12/31 05:27:10;;;;;;;7.20;2.10;;;;;;;9.91;94.53;101189.72;6299423;22;20030;-67
2021/12/31 05:30:14;;;;;;;7.15;3.72;;;;;;;9.84;94.56;101186.50;6298707;22;20164;-67
2021/12/31 05:33:17;;;;;;;14.82;9.00;;;;;;;9.74;94.44;101172.09;6299046;22;20022;-67
2021/12/31 05:36:20;;;;;;;17.92;13.07;;;;;;;9.63;95.26;101174.25;6300467;22;20108;-68
2021/12/31 05:39:25;;;;;;;11.48;6.30;;;;;;;9.54;95.20;101173.72;6301482;22;20026;-67
2021/12/31 05:42:29;;;;;;;10.82;3.15;;;;;;;9.46;94.71;101178.34;6301463;22;20022;-68
2021/12/31 05:45:32;;;;;;;7.32;3.72;;;;;;;9.27;94.88;101166.91;6300825;22;20022;-68
2021/12/31 05:48:35;;;;;;;;;;;;;;;9.28;95.39;101169.47;6301263;22;20022;-68
2021/12/31 05:51:38;;;;;;;23.25;3.08;;;;;;;9.04;94.35;101170.34;6301517;22;20288;-68
2021/12/31 05:54:42;;;;;;;7.53;3.85;;;;;;;9.10;94.93;101164.06;6302201;22;20042;-68
2021/12/31 05:57:45;;;;;;;9.07;4.63;;;;;;;9.15;95.05;101162.13;6302613;22;20329;-67
2021/12/31 06:00:48;;;;;;;16.35;7.72;;;;;;;8.97;94.32;101169.72;6301475;22;20456;-67
2021/12/31 06:03:53;;;;;;;21.45;13.85;;;;;;;8.97;93.90;101174.06;6301597;22;20023;-67
2021/12/31 06:06:57;;;;;;;21.52;7.10;;;;;;;8.82;94.68;101173.69;6301333;22;20054;-68
2021/12/31 06:10:01;;;;;;;15.88;10.07;;;;;;;8.90;95.09;101175.19;6301413;22;20041;-68
2021/12/31 06:13:04;;;;;;;12.82;9.48;;;;;;;8.93;94.81;101170.69;6301617;22;20120;-68
2021/12/31 06:16:07;;;;;;;17.27;8.85;;;;;;;8.92;94.75;101182.03;6301690;22;20034;-67
2021/12/31 06:19:11;;;;;;;;;;;;;;;8.91;94.11;101190.78;6302154;22;20026;-68
2021/12/31 06:22:15;;;;;;;;;;;;;;;8.78;94.89;101194.72;6302358;22;19994;-68
2021/12/31 06:25:19;;;;;;;11.38;6.05;;;;;;;8.75;93.93;101200.88;6301119;22;20071;-68
2021/12/31 06:28:25;;;;;;;28.20;3.90;;;;;;;8.65;92.86;101199.50;6281335;22;20030;-68
2021/12/31 06:31:29;;;;;;;11.50;4.80;;;;;;;8.59;93.59;101195.34;6296518;22;20026;-68
2021/12/31 06:34:32;;;;;;;;;;;;;;;8.61;93.57;101193.53;6298195;22;20123;-68
2021/12/31 06:37:36;;;;;;;10.07;4.43;;;;;;;8.55;93.50;101203.28;6294329;22;20406;-68
2021/12/31 06:40:40;;;;;;;7.43;3.85;;;;;;;8.46;93.24;101198.41;6289835;22;20385;-68
2021/12/31 06:43:44;;;;;;;11.05;4.75;;;;;;;8.49;92.88;101204.38;6290573;22;20231;-68
2021/12/31 06:46:47;;;;;;;;;;;;;;;8.40;92.80;101207.28;6291278;22;20034;-67
2021/12/31 06:49:50;;;;;;;10.93;2.63;;;;;;;8.37;92.87;101196.91;6292674;22;19960;-67
2021/12/31 06:52:53;;;;;;;11.73;3.78;;;;;;;8.33;92.72;101183.13;6289152;22;20030;-67
2021/12/31 06:55:57;;;;;;;17.02;9.80;;;;;;;8.41;92.47;101177.69;6287691;22;20083;-67
2021/12/31 06:59:01;;;;;;;11.23;4.70;;;;;;;8.25;92.23;101179.91;6290280;22;20088;-68
2021/12/31 07:02:04;;;;;;;5.50;3.35;;;;;;;8.27;91.87;101187.69;6290557;22;20514;-68
2021/12/31 07:05:07;;;;;;;;;;;;;;;8.21;91.83;101180.06;6298082;22;20276;-68
2021/12/31 07:08:11;;;;;;;7.93;2.53;;;;;;;8.18;91.35;101174.97;6298694;22;20259;-68
2021/12/31 07:11:16;;;;;;;;;;;;;;;8.14;91.17;101180.25;6298790;22;20034;-67
2021/12/31 07:14:19;;;;;;;5.07;2.80;;;;;;;8.11;91.31;101188.16;6297682;22;20397;-68
2021/12/31 07:17:22;;;;;;;;;;;;;;;7.86;91.42;101187.22;6297731;22;20025;-67
2021/12/31 07:20:25;;;;;;;20.02;6.30;;;;;;;7.91;92.79;101185.31;6278851;22;19918;-67
2021/12/31 07:23:28;;;;;;;7.03;3.63;;;;;;;7.79;91.87;101196.13;6295214;22;20058;-67
2021/12/31 07:26:32;;;;;;;7.90;3.78;;;;;;;7.83;91.41;101193.38;6297767;22;20022;-68
2021/12/31 07:29:35;;;;;;;7.80;4.95;;;;;;;7.91;91.41;101190.53;6299243;22;20075;-68
2021/12/31 07:32:38;;;;;;;18.80;12.18;;;;;;;7.97;91.39;101195.53;6300567;22;20454;-68
2021/12/31 07:35:42;;;;;;;25.00;8.13;;;;;;;7.91;90.70;101201.81;6299701;22;20123;-68
2021/12/31 07:38:57;;;;;;;;;;;;;;;7.85;90.26;101195.94;6298823;22;20442;-68
2021/12/31 07:42:01;;;;;;;14.63;7.25;;;;;;;7.81;90.86;101200.38;6300623;22;20348;-67
2021/12/31 07:45:10;;;;;;;9.52;5.20;;;;;;;7.82;90.76;101206.44;6299142;22;20349;-67
2021/12/31 07:48:13;;;;;;;12.80;5.82;;;;;;;7.77;90.72;101210.94;6299187;22;20065;-68
2021/12/31 07:51:17;;;;;;;10.93;6.30;;;;;;;7.67;91.72;101208.59;6298629;22;20029;-69
2021/12/31 07:54:20;;;;;;;10.50;5.15;;;;;;;7.75;91.73;101199.69;6297725;22;20033;-68
2021/12/31 07:57:24;;;;;;;;;;;;;;;7.73;91.62;101198.91;6301302;22;20048;-68
2021/12/31 08:00:27;;;;;;;8.25;4.95;;;;;;;7.71;91.47;101204.16;6300201;22;19913;-68
2021/12/31 08:03:31;;;;;;;8.48;4.28;;;;;;;7.74;90.94;101201.47;6300911;22;20080;-68
2021/12/31 08:06:34;;;;;;;16.33;8.25;;;;;;;7.76;90.98;101206.63;6297952;22;20046;-68
2021/12/31 08:09:37;;;;;;;13.07;6.55;;;;;;;7.73;90.06;101209.31;6299410;22;20475;-68
2021/12/31 08:12:41;;;;;;;10.98;6.43;;;;;;;7.70;89.65;101215.47;6299993;22;20026;-68
2021/12/31 08:15:44;;;;;;;;;;;;;;;7.67;90.71;101212.94;6301193;22;20026;-69
2021/12/31 08:18:47;;;;;;;57.80;37.20;;;;;;;7.58;90.64;101206.25;6301441;22;20296;-69
2021/12/31 08:21:51;;;;;;;74.10;53.50;;;;;;;7.64;90.71;101213.88;6299815;22;20080;-68
2021/12/31 08:24:54;;;;;;;;;;;;;;;7.49;90.29;101218.69;6300747;22;20026;-69
2021/12/31 08:27:58;;;;;;;;;;;;;;;7.46;90.53;101219.63;6298632;22;19919;-68
2021/12/31 08:31:01;;;;;;;18.80;12.43;;;;;;;7.49;91.13;101221.28;6297563;22;20343;-69
2021/12/31 08:34:06;;;;;;;;;;;;;;;7.39;90.27;101228.50;6299975;22;20096;-69
2021/12/31 08:37:09;;;;;;;20.90;11.38;;;;;;;7.43;90.91;101228.38;6299640;22;20356;-69
2021/12/31 08:40:13;;;;;;;;;;;;;;;7.48;90.78;101225.63;6299935;22;20022;-69
2021/12/31 08:43:16;;;;;;;23.33;14.18;;;;;;;7.44;90.29;101224.88;6299388;22;20001;-69
2021/12/31 08:46:19;;;;;;;16.42;9.25;;;;;;;7.29;90.19;101224.44;6298545;22;20026;-70
2021/12/31 08:49:26;;;;;;;16.58;11.07;;;;;;;7.44;89.98;101226.63;6292512;22;20095;-71
2021/12/31 08:52:29;;;;;;;21.73;13.93;;;;;;;7.51;90.23;101211.69;6297290;22;20021;-70
2021/12/31 08:55:40;;;;;;;19.98;12.75;;;;;;;7.46;89.70;101209.22;6299041;22;20356;-70
2021/12/31 08:58:43;;;;;;;23.90;11.40;;;;;;;7.47;89.91;101213.53;6297933;22;20022;-71
2021/12/31 09:01:46;;;;;;;20.27;11.63;;;;;;;7.47;89.46;101218.75;6297468;22;20092;-70
2021/12/31 09:04:50;;;;;;;16.35;9.38;;;;;;;7.61;89.41;101208.78;6296855;22;20076;-70
2021/12/31 09:07:55;;;;;;;22.48;10.88;;;;;;;7.71;89.43;101218.91;6299785;22;20487;-70
2021/12/31 09:10:58;;;;;;;15.88;9.07;;;;;;;7.59;89.25;101218.34;6300131;22;20074;-70
2021/12/31 09:14:02;;;;;;;19.83;12.43;;;;;;;7.56;89.79;101213.28;6299569;22;20098;-71
2021/12/31 09:17:05;;;;;;;24.20;16.65;;;;;;;7.56;90.76;101225.41;6300679;22;20362;-70
2021/12/31 09:20:17;;;;;;;17.07;10.63;;;;;;;7.38;91.07;101224.19;6299911;22;20062;-70
2021/12/31 09:23:21;;;;;;;;;;;;;;;7.46;91.32;101211.81;6301815;22;20233;-70
2021/12/31 09:26:24;;;;;;;10.43;8.25;;;;;;;7.67;90.82;101213.81;6300327;22;19917;-70
2021/12/31 09:29:27;;;;;;;16.58;10.93;;;;;;;7.79;90.47;101216.97;6299081;22;20402;-70
2021/12/31 09:32:31;;;;;;;;;;;;;;;7.93;90.50;101219.97;6298898;22;20026;-70
2021/12/31 09:35:36;;;;;;;12.55;9.00;;;;;;;8.07;89.73;101212.63;6299112;22;19941;-70
2021/12/31 09:38:39;;;;;;;11.00;8.73;;;;;;;7.93;89.47;101219.97;6299766;22;20049;-70
2021/12/31 09:41:43;;;;;;;11.20;6.25;;;;;;;7.91;90.23;101217.44;6300356;22;20103;-70
2021/12/31 09:44:47;;;;;;;12.25;8.02;;;;;;;8.01;90.36;101218.00;6300024;22;20627;-70
2021/12/31 09:47:50;;;;;;;22.60;20.10;;;;;;;8.21;91.11;101216.53;6298418;22;20368;-71
2021/12/31 09:50:55;;;;;;;19.38;16.73;;;;;;;8.34;90.51;101215.25;6299306;22;20046;-71
2021/12/31 09:53:59;;;;;;;11.90;9.60;;;;;;;8.29;90.82;101211.94;6299067;22;20686;-70
2021/12/31 09:57:04;;;;;;;15.02;13.43;;;;;;;8.44;90.72;101221.91;6299767;22;20022;-70
2021/12/31 10:00:08;;;;;;;13.18;7.22;;;;;;;8.23;91.88;101226.03;6300255;22;20033;-70
2021/12/31 10:03:21;;;;;;;11.18;7.75;;;;;;;8.51;91.54;101231.22;6297738;22;20021;-70
2021/12/31 10:06:25;;;;;;;12.95;7.05;;;;;;;8.67;91.69;101218.53;6300435;22;20026;-70
2021/12/31 10:09:28;;;;;;;;;;;;;;;8.66;91.52;101227.25;6301311;22;20354;-69
2021/12/31 10:12:49;;;;;;;9.07;6.57;;;;;;;8.76;91.49;101217.38;6298912;22;20367;-70
2021/12/31 10:15:54;;;;;;;9.13;5.00;;;;;;;8.69;92.14;101218.50;6298460;22;20026;-69
2021/12/31 10:19:14;;;;;;;16.42;14.05;;;;;;;8.61;93.69;101221.34;6299987;22;20137;-69
2021/12/31 10:22:18;;;;;;;17.30;15.48;;;;;;;8.82;93.40;101233.66;6298660;22;20416;-70
2021/12/31 10:25:30;;;;;;;18.25;13.68;;;;;;;8.98;93.48;101236.63;6299555;22;20360;-70
2021/12/31 10:28:34;;;;;;;14.63;8.32;;;;;;;8.98;93.77;101228.78;6299623;22;20022;-70
2021/12/31 10:31:48;;;;;;;9.60;7.30;;;;;;;9.11;93.43;101207.50;6299950;22;20026;-70
2021/12/31 10:34:51;;;;;;;14.85;6.95;;;;;;;9.13;93.71;101200.47;6299071;22;20098;-70
2021/12/31 10:37:58;;;;;;;7.65;5.82;;;;;;;9.02;94.72;101195.63;6299478;22;20022;-70
2021/12/31 10:41:01;;;;;;;8.32;7.00;;;;;;;9.05;95.14;101195.50;6300450;22;20403;-69
2021/12/31 10:44:04;;;;;;;6.65;4.57;;;;;;;9.20;95.44;101192.38;6300535;22;20049;-70
2021/12/31 10:47:16;;;;;;;6.07;3.78;;;;;;;9.35;94.70;101190.97;6299345;22;20030;-69
2021/12/31 10:50:20;;;;;;;6.22;3.55;;;;;;;9.42;94.55;101192.44;6299269;22;20106;-69
2021/12/31 10:53:34;;;;;;;6.13;3.60;;;;;;;9.51;94.06;101181.66;6299051;22;20042;-70
2021/12/31 10:56:39;;;;;;;11.55;4.13;;;;;;;9.55;93.65;101180.63;6298946;22;20100;-69
2021/12/31 10:59:42;;;;;;;8.43;3.97;;;;;;;9.54;94.47;101180.69;6297582;22;20025;-69
2021/12/31 11:02:47;;;;;;;9.63;4.13;;;;;;;9.55;94.92;101183.25;6297655;22;20060;-69
2021/12/31 11:05:51;;;;;;;13.63;6.10;;;;;;;9.43;95.91;101190.66;6298680;22;20018;-69
2021/12/31 11:08:57;;;;;;;9.82;5.88;;;;;;;9.55;95.29;101182.38;6299589;22;20053;-68
2021/12/31 11:12:01;;;;;;;9.10;7.00;;;;;;;9.62;94.79;101177.78;6299112;22;20558;-69
2021/12/31 11:15:05;;;;;;;10.27;5.80;;;;;;;9.70;94.84;101162.66;6299488;22;20357;-69
2021/12/31 11:18:09;;;;;;;12.15;7.47;;;;;;;9.78;94.82;101153.63;6299697;22;20111;-69
2021/12/31 11:21:14;;;;;;;9.13;5.97;;;;;;;9.73;95.89;101163.41;6298700;22;20037;-69
2021/12/31 11:24:36;;;;;;;9.50;5.30;;;;;;;9.65;96.53;101167.22;6297852;22;20369;-69
2021/12/31 11:27:44;;;;;;;9.15;6.32;;;;;;;9.67;96.75;101160.19;6298336;22;20033;-69
2021/12/31 11:30:49;;;;;;;8.50;5.07;;;;;;;9.83;96.40;101160.44;6298062;22;20543;-69
2021/12/31 11:33:55;;;;;;;8.20;5.07;;;;;;;9.99;95.55;101161.56;6298929;22;20022;-69
2021/12/31 11:37:01;;;;;;;6.63;5.00;;;;;;;10.04;95.52;101150.91;6298799;22;20524;-69
2021/12/31 11:40:38;;;;;;;6.00;3.45;;;;;;;10.02;95.85;101162.28;6299218;22;20026;-69
2021/12/31 11:43:42;;;;;;;7.70;4.32;;;;;;;10.11;95.32;101160.19;6297651;22;20026;-68
2021/12/31 11:46:47;;;;;;;7.57;4.43;;;;;;;10.23;94.65;101151.88;6298597;22;20073;-68
2021/12/31 11:50:24;;;;;;;7.55;3.92;;;;;;;10.30;94.38;101142.88;6298226;22;20030;-68
2021/12/31 11:53:28;;;;;;;8.52;3.20;;;;;;;10.37;94.13;101120.81;6299057;22;20475;-68
2021/12/31 11:56:37;;;;;;;4.35;2.53;;;;;;;10.48;93.90;101109.91;6298627;22;20073;-69
2021/12/31 11:59:51;;;;;;;5.85;3.42;;;;;;;10.51;94.00;101109.78;6299149;22;20022;-68
2021/12/31 12:02:55;;;;;;;4.25;2.78;;;;;;;10.44;95.44;101108.34;6297898;22;20080;-68
2021/12/31 12:05:58;;;;;;;5.35;3.22;;;;;;;10.56;92.94;101106.94;6298687;22;20088;-69
2021/12/31 12:09:02;;;;;;;6.38;2.83;;;;;;;10.61;94.00;101097.16;6299275;22;20088;-69
2021/12/31 12:12:10;;;;;;;8.18;4.90;;;;;;;10.63;93.07;101077.03;6297461;22;20091;-68
2021/12/31 12:15:14;;;;;;;13.95;9.48;;;;;;;10.71;92.74;101061.81;6296351;22;20022;-69
2021/12/31 12:18:51;;;;;;;7.05;5.05;;;;;;;10.80;89.33;101050.13;6297048;22;20026;-68
2021/12/31 12:21:54;;;;;;;5.15;1.40;;;;;;;11.13;85.08;101016.31;6297808;22;20053;-68
2021/12/31 12:25:01;;;;;;;4.70;1.35;;;;;;;11.21;84.95;101011.59;6297204;22;20054;-69
2021/12/31 12:28:12;;;;;;;4.93;2.13;;;;;;;11.32;84.24;101005.81;6298983;22;20435;-69
2021/12/31 12:31:17;;;;;;;3.45;1.77;;;;;;;11.38;83.59;101001.16;6297050;22;20037;-69
2021/12/31 12:34:28;;;;;;;4.20;1.75;;;;;;;11.45;82.88;101008.72;6298349;22;20502;-69
2021/12/31 12:37:32;;;;;;;7.70;1.20;;;;;;;11.53;82.08;101007.41;6298162;22;20022;-69
2021/12/31 12:40:40;;;;;;;5.18;2.20;;;;;;;11.72;81.29;100993.44;6298141;22;20454;-68
2021/12/31 12:43:48;;;;;;;5.60;1.40;;;;;;;11.62;81.74;100990.41;6301172;22;20398;-68
2021/12/31 12:46:59;;;;;;;5.50;2.13;;;;;;;11.64;81.89;100975.44;6301352;22;20025;-68
2021/12/31 12:50:08;;;;;;;7.65;4.20;;;;;;;11.62;82.36;100985.19;6300734;22;20439;-68
2021/12/31 12:53:18;;;;;;;5.25;2.58;;;;;;;11.60;82.45;100960.81;6299478;22;20032;-65
2021/12/31 12:56:22;;;;;;;5.65;2.42;;;;;;;11.62;82.05;100988.63;6299056;22;20587;-68
2021/12/31 12:59:25;;;;;;;7.93;2.60;;;;;;;11.77;81.08;100991.41;6300575;22;20521;-68
2021/12/31 13:02:44;;;;;;;7.03;3.88;;;;;;;11.81;81.24;101008.69;6300985;22;20080;-68
2021/12/31 13:05:47;;;;;;;23.55;16.58;;;;;;;11.90;81.06;100987.31;6300159;22;20021;-68
2021/12/31 13:09:05;;;;;;;20.33;14.25;;;;;;;12.00;80.18;100988.53;6299916;22;20088;-68
2021/12/31 13:12:15;;;;;;;5.78;3.03;;;;;;;12.06;79.91;100993.47;6300032;22;20033;-67
2021/12/31 13:15:20;;;;;;;5.88;3.00;;;;;;;12.10;79.95;100983.66;6298975;22;20412;-67
2021/12/31 13:18:26;;;;;;;3.63;1.85;;;;;;;12.20;79.70;100982.25;6300789;22;20022;-67
2021/12/31 13:21:30;;;;;;;6.22;1.60;;;;;;;12.22;79.54;100987.41;6300150;22;20068;-67
2021/12/31 13:24:34;;;;;;;6.85;1.55;;;;;;;12.23;79.34;100974.25;6301054;22;20576;-68
2021/12/31 13:27:37;;;;;;;6.55;2.80;;;;;;;12.17;79.72;100961.44;6299542;22;20022;-66
2021/12/31 13:30:47;;;;;;;3.28;1.35;;;;;;;12.38;78.20;100961.25;6299949;22;20108;-67
2021/12/31 13:33:51;;;;;;;3.50;2.30;;;;;;;12.34;78.80;100945.66;6299695;22;20072;-67
2021/12/31 13:36:54;;;;;;;5.35;2.33;;;;;;;12.26;79.53;100963.59;6298486;22;20042;-71
2021/12/31 13:40:21;;;;;;;4.97;1.50;;;;;;;12.33;78.51;100959.72;6299843;22;20101;-68
2021/12/31 13:43:25;;;;;;;17.88;8.50;;;;;;;12.27;79.79;100965.28;6300692;22;20841;-69
2021/12/31 13:46:32;;;;;;;13.02;4.28;;;;;;;12.21;80.22;100968.22;6299669;22;20026;-69
2021/12/31 13:49:38;;;;;;;5.22;2.03;;;;;;;12.19;80.17;100982.31;6299406;22;20026;-71
2021/12/31 13:52:46;;;;;;;113.72;80.35;;;;;;;12.26;79.61;101000.31;6297871;22;20030;-70
2021/12/31 13:55:49;;;;;;;16.65;11.63;;;;;;;12.17;81.54;101019.13;6298310;22;20041;-69
2021/12/31 13:58:53;;;;;;;9.52;5.00;;;;;;;12.09;80.73;101024.78;6297331;22;20068;-70
2021/12/31 14:02:11;;;;;;;5.50;3.22;;;;;;;11.94;82.77;101029.94;6296138;22;20120;-68
2021/12/31 14:05:18;;;;;;;8.85;5.18;;;;;;;11.84;82.21;101037.38;6295544;22;20450;-68
2021/12/31 14:11:35;;;;;;;8.38;4.35;;;;;;;11.84;83.12;101022.53;6296035;22;20360;-66
2021/12/31 14:14:42;;;;;;;6.63;3.83;;;;;;;11.68;84.54;101024.16;6296586;22;20096;-68
2021/12/31 14:17:48;;;;;;;5.88;3.03;;;;;;;11.50;85.73;101019.81;6297519;22;20034;-69
2021/12/31 14:20:51;;;;;;;7.88;2.88;;;;;;;11.20;87.31;101019.50;6297560;22;20030;-68
2021/12/31 14:23:55;;;;;;;;;;;;;;;11.13;87.37;101026.78;6299560;22;20095;-67
2021/12/31 14:26:58;;;;;;;6.43;3.72;;;;;;;11.16;87.73;101027.47;6298839;22;20495;-68
2021/12/31 14:30:06;;;;;;;7.07;4.15;;;;;;;11.29;87.33;101038.22;6298019;22;20030;-66
2021/12/31 14:33:10;;;;;;;9.15;2.80;;;;;;;11.25;87.01;101047.16;6297407;22;20076;-66
2021/12/31 14:36:24;;;;;;;11.00;4.97;;;;;;;11.16;87.80;101053.66;6297646;22;20413;-64